KPHX/PHX METAR and TAF weather

Enter ICAO airport designator
Station Type Date Time Source
KPHX METAR 2022/12/02 21:51 UTC NOAA

KPHX 022151Z 35003KT 10SM FEW140 SCT180 BKN250 20/05 A3006 RMK AO2 SLP171 T02000050


Station Type Date Time Source
KPHX Decoded METAR 2022/12/02 21:51 UTC NOAA

Phoenix, Phoenix Sky Harbor International Airport, AZ, United States (KPHX) 33-26-03N 112-03-04W 336M
Dec 02, 2022 - 04:51 PM EST / 2022.12.02 2151 UTC
Wind: from the N (350 degrees) at 3 MPH (3 KT):0
Visibility: 10 mile(s):0
Sky conditions: mostly cloudy
Temperature: 68.0 F (20.0 C)
Dew Point: 41.0 F (5.0 C)
Relative Humidity: 37%
Pressure (altimeter): 30.06 in. Hg (1017 hPa)
ob: KPHX 022151Z 35003KT 10SM FEW140 SCT180 BKN250 20/05 A3006 RMK AO2 SLP171 T02000050
cycle: 22

Station Type Date Time Source
KPHX TAF 2022/12/02 21:45 UTC NOAA

TAF
AMD KPHX 022043Z 0221/0324 29004KT P6SM SCT150 BKN200
FM030400 10004KT P6SM SCT150 BKN200
FM032100 14010KT P6SM BKN100

Example: see airport list